Time;durP1;ratioP1;P1;durP2;ratioP2;P2;SDS_P1;SDS_P2;PMS_P1;PMS_P2;Temp;Humidity;BMP_temperature;BMP_pressure;BME280_temperature;BME280_humidity;BME280_pressure;Samples;Min_cycle;Max_cycle;Signal;HPM_P1;HPM_P2
2023/12/17 00:01:30;;;;;;;14.45;6.70;;;7.50;99.90;;;;;;4985030;28;20034;-51
2023/12/17 00:03:56;;;;;;;11.27;6.38;;;7.50;99.90;;;;;;4984646;28;20030;-52
2023/12/17 00:06:21;;;;;;;13.77;6.05;;;7.50;99.90;;;;;;4984547;28;20027;-52
2023/12/17 00:08:48;;;;;;;13.50;5.93;;;7.50;99.90;;;;;;4980470;28;20435;-52
2023/12/17 00:11:14;;;;;;;13.02;6.13;;;7.50;99.90;;;;;;4984416;28;20101;-51
2023/12/17 00:13:39;;;;;;;10.57;5.75;;;7.50;99.90;;;;;;4975215;28;20105;-51
2023/12/17 00:16:06;;;;;;;10.68;5.18;;;7.50;99.90;;;;;;4982670;28;20194;-50
2023/12/17 00:18:32;;;;;;;14.13;5.53;;;7.50;99.90;;;;;;4983164;28;20042;-54
2023/12/17 00:20:58;;;;;;;12.70;5.68;;;7.50;99.90;;;;;;4983454;28;20129;-51
2023/12/17 00:23:23;;;;;;;13.40;5.65;;;7.50;99.90;;;;;;4988531;28;20070;-51
2023/12/17 00:25:49;;;;;;;8.45;5.25;;;7.50;99.90;;;;;;4984064;28;20109;-52
2023/12/17 00:28:14;;;;;;;11.13;5.03;;;7.50;99.90;;;;;;4981050;28;20034;-51
2023/12/17 00:30:40;;;;;;;10.65;4.30;;;7.60;99.90;;;;;;4985988;28;20046;-51
2023/12/17 00:33:06;;;;;;;13.63;4.65;;;7.50;99.90;;;;;;4984262;28;20420;-52
2023/12/17 00:35:31;;;;;;;13.93;6.03;;;7.50;99.90;;;;;;4985437;28;20019;-50
2023/12/17 00:37:57;;;;;;;12.57;4.38;;;7.50;99.90;;;;;;4985104;28;20062;-51
2023/12/17 00:40:23;;;;;;;14.57;5.10;;;7.50;99.90;;;;;;4986618;28;20033;-51
2023/12/17 00:42:49;;;;;;;11.88;4.57;;;7.50;99.90;;;;;;4986511;28;20023;-51
2023/12/17 00:45:14;;;;;;;13.25;5.25;;;7.50;99.90;;;;;;4982698;28;20080;-52
2023/12/17 00:47:40;;;;;;;11.38;4.68;;;7.40;99.90;;;;;;4986276;28;20157;-55
2023/12/17 00:50:06;;;;;;;9.80;4.32;;;7.40;99.90;;;;;;4985198;28;20033;-50
2023/12/17 00:52:32;;;;;;;14.48;4.95;;;7.50;99.90;;;;;;4985216;28;20022;-54
2023/12/17 00:54:57;;;;;;;12.32;4.55;;;7.50;99.90;;;;;;4983220;28;20110;-51
2023/12/17 00:57:23;;;;;;;24.55;5.15;;;7.50;99.90;;;;;;4984474;28;20031;-51
2023/12/17 00:59:48;;;;;;;10.63;5.28;;;7.50;99.90;;;;;;4980358;28;20076;-53
2023/12/17 01:02:14;;;;;;;15.93;5.25;;;7.50;99.90;;;;;;4984248;28;20038;-54
2023/12/17 01:04:40;;;;;;;11.02;4.75;;;7.40;99.90;;;;;;4984146;28;20038;-53
2023/12/17 01:07:05;;;;;;;14.32;6.22;;;7.40;99.90;;;;;;4971075;28;20027;-51
2023/12/17 01:09:31;;;;;;;15.32;5.13;;;7.40;99.90;;;;;;4977055;28;20045;-51
2023/12/17 01:11:58;;;;;;;10.90;4.95;;;7.40;99.90;;;;;;4979586;28;20029;-51
2023/12/17 01:14:24;;;;;;;18.67;6.00;;;7.40;99.90;;;;;;4983191;28;20034;-51
2023/12/17 01:16:50;;;;;;;16.60;6.03;;;7.40;99.90;;;;;;4982873;28;20535;-51
2023/12/17 01:19:16;;;;;;;14.43;5.28;;;7.40;99.90;;;;;;4976992;28;20042;-54
2023/12/17 01:21:41;;;;;;;16.05;5.53;;;7.40;99.90;;;;;;4983937;28;20507;-52
2023/12/17 01:24:07;;;;;;;19.08;5.93;;;7.30;99.90;;;;;;4984658;28;20034;-53
2023/12/17 01:26:34;;;;;;;9.45;5.43;;;7.30;99.90;;;;;;4985012;28;20399;-52
2023/12/17 01:29:00;;;;;;;18.52;6.60;;;7.30;99.90;;;;;;4987751;28;20109;-54
2023/12/17 01:31:25;;;;;;;11.82;5.43;;;7.30;99.90;;;;;;4986348;28;20117;-52
2023/12/17 01:33:51;;;;;;;12.18;5.95;;;7.30;99.90;;;;;;4985887;28;20519;-54
2023/12/17 01:36:17;;;;;;;13.63;6.10;;;7.30;99.90;;;;;;4983439;28;20129;-52
2023/12/17 01:38:42;;;;;;;9.13;5.18;;;7.30;99.90;;;;;;4986634;28;20500;-52
2023/12/17 01:41:08;;;;;;;12.27;5.47;;;7.40;99.90;;;;;;4989747;28;20046;-51
2023/12/17 01:43:33;;;;;;;11.90;5.57;;;7.40;99.90;;;;;;4987198;28;20026;-50
2023/12/17 01:45:59;;;;;;;11.85;5.43;;;7.30;99.90;;;;;;4988708;28;20026;-52
2023/12/17 01:48:26;;;;;;;13.05;6.90;;;7.30;99.90;;;;;;4988951;28;20042;-52
2023/12/17 01:50:54;;;;;;;11.13;5.80;;;7.30;99.90;;;;;;4983898;28;20481;-51
2023/12/17 01:53:20;;;;;;;14.55;5.30;;;7.30;99.90;;;;;;4987292;28;20025;-51
2023/12/17 01:55:48;;;;;;;11.10;5.03;;;7.40;99.90;;;;;;4971126;28;20031;-51
2023/12/17 01:58:15;;;;;;;10.27;4.85;;;7.30;99.90;;;;;;4986515;28;20484;-55
2023/12/17 02:00:41;;;;;;;11.23;4.90;;;7.30;99.90;;;;;;4986625;28;20193;-51
2023/12/17 02:03:06;;;;;;;11.35;5.75;;;7.30;99.90;;;;;;4988323;28;20133;-53
2023/12/17 02:05:36;;;;;;;14.60;5.60;;;7.30;99.90;;;;;;4991235;28;20428;-53
2023/12/17 02:08:03;;;;;;;8.18;4.85;;;7.40;99.90;;;;;;4986796;28;20034;-51
2023/12/17 02:10:29;;;;;;;10.05;5.25;;;7.30;99.90;;;;;;4987144;28;20033;-52
2023/12/17 02:12:54;;;;;;;9.10;4.80;;;7.30;99.90;;;;;;4987842;28;20034;-51
2023/12/17 02:15:20;;;;;;;10.05;5.18;;;7.30;99.90;;;;;;4988073;28;21554;-52
2023/12/17 02:17:46;;;;;;;12.50;5.05;;;7.30;99.90;;;;;;4989743;28;20041;-51
2023/12/17 02:20:11;;;;;;;15.88;4.43;;;7.30;99.90;;;;;;4987181;28;20030;-51
2023/12/17 02:22:38;;;;;;;9.68;4.80;;;7.30;99.90;;;;;;4992426;28;20088;-54
2023/12/17 02:25:07;;;;;;;14.60;4.55;;;7.30;99.90;;;;;;4992854;28;21900;-52
2023/12/17 02:27:33;;;;;;;14.82;4.75;;;7.30;99.90;;;;;;4989627;28;20404;-54
2023/12/17 02:29:58;;;;;;;11.63;5.05;;;7.30;99.90;;;;;;4992535;28;20042;-51
2023/12/17 02:32:24;;;;;;;11.55;4.57;;;7.30;99.90;;;;;;4976428;28;20027;-51
2023/12/17 02:34:51;;;;;;;12.30;4.78;;;7.30;99.90;;;;;;4992612;28;20018;-54
2023/12/17 02:37:17;;;;;;;11.88;4.75;;;7.40;99.90;;;;;;4990780;28;20030;-51
2023/12/17 02:39:43;;;;;;;13.40;5.03;;;7.40;99.90;;;;;;4993568;28;20038;-53
2023/12/17 02:42:08;;;;;;;8.98;3.63;;;7.40;99.90;;;;;;4992767;28;20030;-54
2023/12/17 02:44:34;;;;;;;9.32;4.57;;;7.40;99.90;;;;;;4993099;28;20473;-52
2023/12/17 02:47:00;;;;;;;17.33;4.85;;;7.40;99.90;;;;;;4990536;28;20038;-51
2023/12/17 02:49:26;;;;;;;10.48;4.40;;;7.40;99.90;;;;;;4992846;28;20034;-53
2023/12/17 02:51:53;;;;;;;16.90;4.82;;;7.40;99.90;;;;;;4992095;28;20029;-51
2023/12/17 02:54:19;;;;;;;22.15;5.55;;;7.40;99.90;;;;;;4992773;28;20523;-51
2023/12/17 02:56:45;;;;;;;16.30;6.53;;;7.40;99.90;;;;;;4990200;28;20081;-52
2023/12/17 02:59:12;;;;;;;15.27;5.20;;;7.40;99.90;;;;;;4992861;28;20041;-51
2023/12/17 03:01:42;;;;;;;13.68;5.00;;;7.40;99.90;;;;;;4992898;28;20038;-53
2023/12/17 03:04:08;;;;;;;14.52;5.80;;;7.40;99.90;;;;;;4993046;28;20030;-53
2023/12/17 03:06:35;;;;;;;16.02;5.28;;;7.40;99.90;;;;;;4990532;28;20022;-54
2023/12/17 03:09:01;;;;;;;14.15;5.45;;;7.40;99.90;;;;;;4992363;28;20369;-51
2023/12/17 03:11:26;;;;;;;23.85;5.88;;;7.40;99.90;;;;;;4992081;28;20034;-52
2023/12/17 03:13:52;;;;;;;23.00;6.32;;;7.40;99.90;;;;;;4992978;28;20037;-54
2023/12/17 03:16:17;;;;;;;15.52;5.18;;;7.30;99.90;;;;;;4991366;28;20034;-51
2023/12/17 03:18:43;;;;;;;14.10;5.57;;;7.40;99.90;;;;;;4990568;28;20044;-53
2023/12/17 03:21:09;;;;;;;20.75;5.93;;;7.30;99.90;;;;;;4990701;28;20076;-51
2023/12/17 03:23:35;;;;;;;23.75;6.85;;;7.30;99.90;;;;;;4992004;28;20397;-51
2023/12/17 03:26:02;;;;;;;13.35;5.50;;;7.30;99.90;;;;;;4989841;28;20117;-51
2023/12/17 03:28:27;;;;;;;19.27;6.07;;;7.30;99.90;;;;;;4991222;28;20436;-52
2023/12/17 03:30:53;;;;;;;19.92;5.97;;;7.30;99.90;;;;;;4989230;28;20034;-52
2023/12/17 03:33:18;;;;;;;13.40;5.22;;;7.30;99.90;;;;;;4991537;28;20022;-51
2023/12/17 03:35:44;;;;;;;15.68;7.35;;;7.30;99.90;;;;;;4991379;28;20504;-50
2023/12/17 03:38:10;;;;;;;12.18;5.15;;;7.30;99.90;;;;;;4989861;28;20030;-53
2023/12/17 03:40:35;;;;;;;24.48;6.65;;;7.30;99.90;;;;;;4973006;28;20133;-51
2023/12/17 03:43:01;;;;;;;15.20;5.97;;;7.30;99.90;;;;;;4990823;28;20046;-53
2023/12/17 03:45:26;;;;;;;16.02;5.65;;;7.30;99.90;;;;;;4983270;28;20459;-52
2023/12/17 03:47:52;;;;;;;15.90;5.90;;;7.30;99.90;;;;;;4986299;28;21198;-51
2023/12/17 03:50:19;;;;;;;11.15;5.47;;;7.30;99.90;;;;;;4981232;28;20022;-52
2023/12/17 03:52:46;;;;;;;18.20;6.85;;;7.30;99.90;;;;;;4981181;28;20053;-51
2023/12/17 03:55:13;;;;;;;22.95;6.78;;;7.30;99.90;;;;;;4989334;28;20019;-51
2023/12/17 03:57:38;;;;;;;13.45;5.53;;;7.30;99.90;;;;;;4989385;28;20039;-53
2023/12/17 04:00:05;;;;;;;18.88;7.15;;;7.30;99.90;;;;;;4988718;28;20085;-51
2023/12/17 04:02:30;;;;;;;22.38;6.75;;;7.30;99.90;;;;;;4989261;28;20118;-54
2023/12/17 04:04:56;;;;;;;16.08;6.40;;;7.30;99.90;;;;;;4992029;28;20109;-51
2023/12/17 04:07:22;;;;;;;20.55;6.47;;;7.30;99.90;;;;;;4991290;28;20089;-52
2023/12/17 04:09:47;;;;;;;28.50;6.65;;;7.20;99.90;;;;;;4987346;28;20034;-49
2023/12/17 04:12:14;;;;;;;16.92;6.28;;;7.20;99.90;;;;;;4986435;28;20499;-52
2023/12/17 04:14:40;;;;;;;17.42;6.63;;;7.20;99.90;;;;;;4972034;28;20026;-52
2023/12/17 04:17:07;;;;;;;16.88;6.47;;;7.30;99.90;;;;;;4987109;28;20117;-51
2023/12/17 04:19:32;;;;;;;16.50;6.90;;;7.30;99.90;;;;;;4986308;28;20119;-51
2023/12/17 04:21:58;;;;;;;16.60;6.70;;;7.30;99.90;;;;;;4987276;28;20114;-51
2023/12/17 04:24:24;;;;;;;18.27;7.32;;;7.30;99.90;;;;;;4987589;28;20026;-51
2023/12/17 04:26:50;;;;;;;24.90;7.45;;;7.30;99.90;;;;;;4987300;28;20481;-51
2023/12/17 04:29:15;;;;;;;17.35;7.55;;;7.30;99.90;;;;;;4988881;28;20058;-51
2023/12/17 04:31:41;;;;;;;19.90;7.30;;;7.30;99.90;;;;;;4988443;28;20066;-53
2023/12/17 04:34:08;;;;;;;23.10;7.78;;;7.30;99.90;;;;;;4988594;28;20057;-52
2023/12/17 04:36:34;;;;;;;13.48;7.72;;;7.30;99.90;;;;;;4988528;28;20026;-54
2023/12/17 04:39:00;;;;;;;11.68;6.57;;;7.30;99.90;;;;;;4988077;28;20584;-52
2023/12/17 04:41:26;;;;;;;22.92;7.32;;;7.30;99.90;;;;;;4987567;28;20587;-51
2023/12/17 04:43:52;;;;;;;21.17;8.15;;;7.30;99.90;;;;;;4987418;28;20034;-54
2023/12/17 04:46:18;;;;;;;22.58;7.57;;;7.30;99.90;;;;;;4987347;28;20109;-51
2023/12/17 04:48:44;;;;;;;12.98;7.00;;;7.30;99.90;;;;;;4986003;28;20503;-53
2023/12/17 04:51:09;;;;;;;18.50;7.30;;;7.30;99.90;;;;;;4988303;28;20019;-53
2023/12/17 04:53:35;;;;;;;13.50;7.07;;;7.30;99.90;;;;;;4988350;28;20088;-51
2023/12/17 04:56:01;;;;;;;15.00;6.47;;;7.30;99.90;;;;;;4988093;28;20034;-50
2023/12/17 04:58:26;;;;;;;17.88;6.88;;;7.40;99.90;;;;;;4988891;28;20053;-54
2023/12/17 05:00:52;;;;;;;22.25;6.13;;;7.30;99.90;;;;;;4989395;28;20504;-52
2023/12/17 05:03:17;;;;;;;17.40;6.72;;;7.40;99.90;;;;;;4986575;28;20038;-52
2023/12/17 05:05:44;;;;;;;13.60;6.10;;;7.30;99.90;;;;;;4990391;28;20080;-51
2023/12/17 05:08:09;;;;;;;14.45;6.07;;;7.30;99.90;;;;;;4987087;28;20400;-53
2023/12/17 05:10:35;;;;;;;15.95;6.07;;;7.30;99.90;;;;;;4984996;28;20030;-54
2023/12/17 05:13:00;;;;;;;14.95;6.65;;;7.40;99.90;;;;;;4988314;28;20139;-51
2023/12/17 05:15:26;;;;;;;18.30;7.10;;;7.30;99.90;;;;;;4990440;28;20033;-54
2023/12/17 05:17:52;;;;;;;14.85;5.28;;;7.30;99.90;;;;;;4989559;28;20038;-52
2023/12/17 05:20:17;;;;;;;19.38;5.68;;;7.30;99.90;;;;;;4987900;28;20030;-53
2023/12/17 05:22:43;;;;;;;11.82;5.50;;;7.30;99.90;;;;;;4985734;28;20101;-54
2023/12/17 05:25:09;;;;;;;15.23;6.82;;;7.30;99.90;;;;;;4984313;28;20026;-51
2023/12/17 05:27:37;;;;;;;13.95;5.45;;;7.30;99.90;;;;;;4984658;28;20045;-51
2023/12/17 05:30:03;;;;;;;12.48;5.93;;;7.30;99.90;;;;;;5009457;22;20399;-52
2023/12/17 05:32:29;;;;;;;16.98;6.22;;;7.30;99.90;;;;;;5009970;28;20026;-52
2023/12/17 05:34:54;;;;;;;15.73;6.65;;;7.30;99.90;;;;;;5008342;28;20034;-52
2023/12/17 05:37:20;;;;;;;10.20;4.50;;;7.30;99.90;;;;;;5013051;28;20029;-53
2023/12/17 05:39:46;;;;;;;8.07;5.05;;;7.30;99.90;;;;;;5002875;28;20034;-51
2023/12/17 05:42:11;;;;;;;15.65;5.18;;;7.30;99.90;;;;;;4990320;28;20042;-50
2023/12/17 05:44:37;;;;;;;11.38;5.57;;;7.30;99.90;;;;;;4990043;28;20042;-51
2023/12/17 05:47:02;;;;;;;17.15;7.28;;;7.30;99.90;;;;;;4990033;28;20031;-52
2023/12/17 05:49:28;;;;;;;12.88;6.20;;;7.30;99.90;;;;;;4991026;28;20033;-49
2023/12/17 05:51:54;;;;;;;14.95;5.78;;;7.30;99.90;;;;;;4988713;28;20085;-52
2023/12/17 05:54:19;;;;;;;16.60;6.30;;;7.30;99.90;;;;;;4990554;28;20753;-51
2023/12/17 05:56:45;;;;;;;16.50;6.43;;;7.30;99.90;;;;;;4992172;28;20512;-51
2023/12/17 05:59:10;;;;;;;14.10;6.63;;;7.30;99.90;;;;;;4994632;28;20070;-51
2023/12/17 06:01:36;;;;;;;16.52;5.65;;;7.20;99.90;;;;;;4995034;28;20037;-51
2023/12/17 06:04:02;;;;;;;11.20;5.72;;;7.20;99.90;;;;;;4994377;28;20092;-50
2023/12/17 06:06:28;;;;;;;18.15;5.80;;;7.20;99.90;;;;;;4993158;28;20388;-51
2023/12/17 06:08:54;;;;;;;17.27;7.72;;;7.20;99.90;;;;;;4993936;28;20030;-54
2023/12/17 06:11:19;;;;;;;17.73;5.78;;;7.20;99.90;;;;;;4993763;28;20050;-53
2023/12/17 06:13:45;;;;;;;16.05;6.25;;;7.20;99.90;;;;;;4991802;28;20034;-51
2023/12/17 06:16:11;;;;;;;13.20;6.65;;;7.20;99.90;;;;;;4993836;28;20049;-53
2023/12/17 06:18:39;;;;;;;18.92;5.55;;;7.20;99.90;;;;;;4989910;28;20042;-53
2023/12/17 06:21:05;;;;;;;13.55;6.75;;;7.20;99.90;;;;;;4993214;28;20035;-50
2023/12/17 06:23:32;;;;;;;15.85;5.82;;;7.20;99.90;;;;;;4978332;28;20026;-52
2023/12/17 06:25:57;;;;;;;14.13;5.70;;;7.20;99.90;;;;;;4994723;28;20038;-51
2023/12/17 06:28:24;;;;;;;14.35;6.60;;;7.20;99.90;;;;;;4997423;28;20046;-51
2023/12/17 06:30:50;;;;;;;15.68;5.75;;;7.20;99.90;;;;;;4996219;28;20030;-49
2023/12/17 06:33:15;;;;;;;17.38;8.85;;;7.20;99.90;;;;;;4998472;28;20050;-50
2023/12/17 06:35:41;;;;;;;34.80;16.02;;;7.20;99.90;;;;;;4998611;28;20026;-54
2023/12/17 06:38:07;;;;;;;20.10;12.35;;;7.20;99.90;;;;;;4997670;28;20471;-49
2023/12/17 06:40:33;;;;;;;51.78;24.15;;;7.20;99.90;;;;;;4999797;28;20030;-51
2023/12/17 06:42:58;;;;;;;28.27;14.82;;;7.20;99.90;;;;;;4995229;28;20060;-51
2023/12/17 06:45:24;;;;;;;17.23;8.90;;;7.10;99.90;;;;;;4998430;28;20101;-51
2023/12/17 06:47:49;;;;;;;21.23;10.45;;;7.10;99.90;;;;;;4997189;28;20050;-50
2023/12/17 06:50:15;;;;;;;16.70;7.75;;;7.10;99.90;;;;;;4997194;28;20019;-49
2023/12/17 06:52:41;;;;;;;12.90;6.47;;;7.10;99.90;;;;;;4996979;28;20085;-51
2023/12/17 06:55:07;;;;;;;12.30;5.40;;;7.10;99.90;;;;;;4999782;28;20034;-52
2023/12/17 06:57:33;;;;;;;13.88;6.40;;;7.10;99.90;;;;;;4995893;28;20038;-53
2023/12/17 06:59:59;;;;;;;10.57;5.82;;;7.10;99.90;;;;;;4997876;28;20030;-51
2023/12/17 07:02:24;;;;;;;14.77;6.50;;;7.10;99.90;;;;;;4998241;28;21947;-49
2023/12/17 07:04:50;;;;;;;10.20;5.65;;;7.10;99.90;;;;;;4996891;28;20039;-50
2023/12/17 07:07:15;;;;;;;10.15;5.45;;;7.10;99.90;;;;;;4996155;28;20121;-48
2023/12/17 07:09:41;;;;;;;17.88;4.95;;;7.10;99.90;;;;;;4998144;28;20034;-52
2023/12/17 07:12:08;;;;;;;14.75;5.65;;;7.10;99.90;;;;;;4995476;28;20025;-53
2023/12/17 07:14:33;;;;;;;11.18;5.15;;;7.10;99.90;;;;;;4996004;28;20504;-50
2023/12/17 07:16:59;;;;;;;10.82;5.60;;;7.00;99.90;;;;;;4996584;28;20034;-50
2023/12/17 07:19:25;;;;;;;13.15;5.60;;;7.10;99.90;;;;;;4994906;28;20042;-50
2023/12/17 07:21:51;;;;;;;10.98;5.00;;;7.00;99.90;;;;;;4997033;28;20037;-51
2023/12/17 07:24:16;;;;;;;13.55;5.35;;;7.10;99.90;;;;;;4983071;28;20046;-52
2023/12/17 07:26:42;;;;;;;17.48;5.38;;;7.10;99.90;;;;;;4996596;28;20049;-52
2023/12/17 07:29:08;;;;;;;11.13;5.35;;;7.00;99.90;;;;;;4998184;28;20145;-51
2023/12/17 07:31:33;;;;;;;11.00;5.10;;;7.00;99.90;;;;;;4994259;28;20058;-50
2023/12/17 07:33:59;;;;;;;11.02;5.93;;;7.00;99.90;;;;;;4998291;28;20492;-51
2023/12/17 07:36:25;;;;;;;17.35;8.60;;;7.00;99.90;;;;;;4997295;28;20042;-51
2023/12/17 07:38:50;;;;;;;12.80;6.75;;;7.00;99.90;;;;;;4996051;28;20459;-53
2023/12/17 07:41:16;;;;;;;14.70;7.88;;;7.00;99.90;;;;;;4994283;28;20487;-51
2023/12/17 07:43:41;;;;;;;15.95;5.97;;;7.00;99.90;;;;;;4995876;28;20454;-53
2023/12/17 07:46:07;;;;;;;12.85;6.47;;;7.00;99.90;;;;;;4996092;28;20077;-52
2023/12/17 07:48:33;;;;;;;14.10;7.35;;;7.00;99.90;;;;;;4997738;28;20034;-50
2023/12/17 07:51:01;;;;;;;25.05;14.32;;;7.00;99.90;;;;;;4996015;28;20518;-51
2023/12/17 07:53:26;;;;;;;15.85;8.50;;;7.00;99.90;;;;;;4997649;28;20030;-51
2023/12/17 07:55:57;;;;;;;14.73;6.22;;;7.00;99.90;;;;;;4992270;28;20559;-51
2023/12/17 07:58:25;;;;;;;8.73;5.65;;;7.00;99.90;;;;;;4996508;28;20040;-52
2023/12/17 08:00:52;;;;;;;9.75;4.85;;;7.00;99.90;;;;;;4995179;28;20045;-51
2023/12/17 08:03:19;;;;;;;8.35;5.22;;;7.00;99.90;;;;;;4996320;28;20038;-49
2023/12/17 08:05:45;;;;;;;8.00;4.75;;;7.10;99.90;;;;;;4996478;28;20034;-51
2023/12/17 08:08:11;;;;;;;10.18;4.63;;;7.10;99.90;;;;;;4996629;28;20439;-52
2023/12/17 08:10:36;;;;;;;10.05;5.10;;;7.10;99.90;;;;;;4996158;28;20030;-52
2023/12/17 08:13:02;;;;;;;8.52;4.47;;;7.10;99.90;;;;;;4998140;28;20480;-51
2023/12/17 08:15:27;;;;;;;8.07;5.10;;;7.10;99.90;;;;;;4994883;28;20034;-49
2023/12/17 08:17:53;;;;;;;7.15;4.82;;;7.10;99.90;;;;;;4995469;28;20033;-50
2023/12/17 08:20:19;;;;;;;8.00;4.68;;;7.10;99.90;;;;;;4995671;28;20026;-53
2023/12/17 08:22:44;;;;;;;7.50;4.50;;;7.10;99.90;;;;;;4993078;28;20048;-53
2023/12/17 08:25:10;;;;;;;7.65;4.03;;;7.10;99.90;;;;;;4990405;28;20455;-50
2023/12/17 08:27:36;;;;;;;10.40;4.68;;;7.20;99.90;;;;;;4991603;28;20034;-49
2023/12/17 08:30:02;;;;;;;21.23;11.57;;;7.20;99.90;;;;;;4991702;28;20029;-50
2023/12/17 08:32:31;;;;;;;12.18;7.15;;;7.20;99.90;;;;;;4997398;28;20041;-51
2023/12/17 08:34:59;;;;;;;6.50;3.95;;;7.20;99.90;;;;;;4994799;28;20113;-50
2023/12/17 08:37:26;;;;;;;7.07;4.40;;;7.10;99.90;;;;;;4994078;28;20037;-50
2023/12/17 08:39:53;;;;;;;8.60;3.90;;;7.20;99.90;;;;;;4994049;28;20041;-50
2023/12/17 08:42:19;;;;;;;9.00;4.10;;;7.10;99.90;;;;;;4993921;28;20050;-51
2023/12/17 08:44:46;;;;;;;9.40;4.95;;;7.20;99.90;;;;;;4994433;28;20038;-52
2023/12/17 08:47:12;;;;;;;6.10;4.07;;;7.20;99.90;;;;;;4996428;28;20112;-53
2023/12/17 08:49:37;;;;;;;8.02;4.60;;;7.20;99.90;;;;;;4996394;28;20118;-51
2023/12/17 08:52:04;;;;;;;7.82;4.00;;;7.30;99.90;;;;;;4994164;28;20101;-53
2023/12/17 08:54:30;;;;;;;6.43;4.00;;;7.30;99.90;;;;;;4991950;28;20046;-53
2023/12/17 08:56:56;;;;;;;8.75;4.68;;;7.40;99.90;;;;;;4997391;28;20373;-51
2023/12/17 08:59:21;;;;;;;7.28;4.25;;;7.40;99.90;;;;;;4993479;28;20073;-52
2023/12/17 09:01:47;;;;;;;12.43;7.03;;;7.50;99.90;;;;;;4994382;28;20110;-52
2023/12/17 09:04:13;;;;;;;7.32;4.40;;;7.40;99.90;;;;;;4994295;28;20037;-49
2023/12/17 09:06:46;;;;;;;18.70;8.70;;;7.40;99.90;;;;;;4995336;28;20373;-50
2023/12/17 09:09:12;;;;;;;9.02;4.90;;;7.40;99.90;;;;;;4994179;28;20033;-50
2023/12/17 09:11:38;;;;;;;8.93;4.65;;;7.50;99.90;;;;;;4993718;28;20034;-50
2023/12/17 09:14:05;;;;;;;7.55;4.53;;;7.50;99.90;;;;;;4994972;28;20376;-50
2023/12/17 09:16:30;;;;;;;7.30;4.60;;;7.50;99.90;;;;;;4993763;28;20105;-51
2023/12/17 09:18:56;;;;;;;8.75;5.70;;;7.50;99.90;;;;;;4996135;28;20117;-48
2023/12/17 09:21:22;;;;;;;7.55;4.13;;;7.50;99.90;;;;;;4995835;28;20118;-51
2023/12/17 09:23:47;;;;;;;8.65;4.88;;;7.60;99.90;;;;;;4993570;28;20050;-50
2023/12/17 09:26:13;;;;;;;7.05;4.10;;;7.60;99.90;;;;;;4993876;28;21037;-50
2023/12/17 09:28:39;;;;;;;7.35;4.30;;;7.70;99.90;;;;;;4994926;28;20034;-52
2023/12/17 09:31:08;;;;;;;7.35;3.33;;;7.70;99.90;;;;;;4998410;28;20034;-54
2023/12/17 09:33:38;;;;;;;8.43;4.00;;;7.70;99.90;;;;;;4999044;28;20038;-50
2023/12/17 09:36:05;;;;;;;6.10;3.72;;;7.70;99.90;;;;;;4999733;28;20121;-50
2023/12/17 09:38:30;;;;;;;6.43;3.42;;;7.70;99.90;;;;;;4996936;28;22035;-54
2023/12/17 09:40:56;;;;;;;6.60;3.22;;;7.70;99.90;;;;;;4998431;28;20037;-53
2023/12/17 09:43:24;;;;;;;7.28;3.50;;;7.80;99.90;;;;;;4997261;28;20056;-50
2023/12/17 09:45:51;;;;;;;6.60;3.33;;;7.80;99.90;;;;;;4993851;28;20030;-51
2023/12/17 09:48:17;;;;;;;6.20;2.97;;;7.90;99.90;;;;;;5000157;28;20381;-51
2023/12/17 09:50:42;;;;;;;7.20;3.80;;;7.90;99.90;;;;;;4998500;28;20022;-51
2023/12/17 09:53:08;;;;;;;10.88;4.63;;;7.80;99.90;;;;;;4997959;28;20766;-51
2023/12/17 09:55:35;;;;;;;11.90;5.20;;;7.90;99.90;;;;;;4997457;28;20036;-55
2023/12/17 09:58:04;;;;;;;10.18;5.30;;;7.80;99.90;;;;;;4998235;28;20026;-50
2023/12/17 10:00:31;;;;;;;8.52;4.20;;;7.80;99.90;;;;;;4994355;28;20687;-49
2023/12/17 10:03:04;;;;;;;9.10;4.45;;;7.80;99.90;;;;;;4997254;28;20042;-52
2023/12/17 10:05:30;;;;;;;12.95;4.97;;;7.90;99.90;;;;;;4997679;28;20587;-51
2023/12/17 10:07:55;;;;;;;9.77;4.95;;;7.80;99.90;;;;;;4999793;28;20093;-50
2023/12/17 10:10:21;;;;;;;7.65;4.90;;;7.90;99.90;;;;;;4997759;28;20038;-50
2023/12/17 10:12:47;;;;;;;11.18;5.57;;;7.90;99.90;;;;;;4995499;28;20089;-50
2023/12/17 10:15:13;;;;;;;10.23;5.15;;;7.90;99.90;;;;;;4997388;28;20027;-52
2023/12/17 10:17:39;;;;;;;10.80;5.72;;;7.90;99.90;;;;;;4996276;28;20030;-51
2023/12/17 10:20:06;;;;;;;9.82;5.53;;;7.90;99.90;;;;;;4996273;28;20031;-51
2023/12/17 10:22:32;;;;;;;7.95;4.80;;;7.90;99.90;;;;;;4993855;28;20133;-50
2023/12/17 10:24:57;;;;;;;6.40;4.20;;;7.90;99.90;;;;;;4985279;28;20536;-54
2023/12/17 10:27:23;;;;;;;7.25;3.97;;;7.90;99.90;;;;;;4996962;28;20041;-52
2023/12/17 10:29:50;;;;;;;8.25;4.65;;;7.90;99.90;;;;;;4999253;28;20026;-54
2023/12/17 10:32:19;;;;;;;7.35;4.35;;;8.00;99.90;;;;;;4990587;28;20072;-50
2023/12/17 10:34:46;;;;;;;8.18;3.67;;;8.10;99.90;;;;;;4999248;28;20026;-51
2023/12/17 10:37:12;;;;;;;6.78;3.70;;;8.10;99.90;;;;;;4995330;28;21011;-52
2023/12/17 10:39:38;;;;;;;8.20;4.38;;;8.00;99.90;;;;;;4995101;28;20069;-48
2023/12/17 10:42:05;;;;;;;9.15;5.55;;;8.10;99.90;;;;;;4971038;28;21301;-52
2023/12/17 10:44:31;;;;;;;8.73;5.32;;;8.10;99.90;;;;;;4998232;28;20061;-50
2023/12/17 10:47:01;;;;;;;9.23;5.57;;;8.10;99.90;;;;;;4988775;28;20030;-51
2023/12/17 10:49:27;;;;;;;8.75;5.20;;;8.10;99.90;;;;;;4996095;28;20034;-50
2023/12/17 10:51:53;;;;;;;8.98;5.30;;;8.00;99.90;;;;;;4985659;28;20030;-51
2023/12/17 10:54:19;;;;;;;10.27;5.53;;;8.10;99.90;;;;;;4994021;28;20113;-54
2023/12/17 10:56:50;;;;;;;7.80;5.40;;;8.20;99.90;;;;;;4994893;28;20160;-49
2023/12/17 10:59:24;;;;;;;11.93;5.28;;;8.20;99.90;;;;;;4986023;28;20042;-49
2023/12/17 11:01:55;;;;;;;8.88;4.47;;;8.30;99.90;;;;;;5003609;28;20062;-50
2023/12/17 11:04:24;;;;;;;8.43;4.28;;;8.30;99.90;;;;;;4991618;28;20092;-51
2023/12/17 11:06:51;;;;;;;6.05;3.70;;;8.30;99.90;;;;;;4986596;28;20041;-52
2023/12/17 11:09:17;;;;;;;6.28;3.47;;;8.30;99.90;;;;;;4992850;28;20142;-52
2023/12/17 11:11:42;;;;;;;24.77;12.73;;;8.40;99.90;;;;;;4991749;28;20105;-53
2023/12/17 11:14:12;;;;;;;7.18;4.90;;;8.30;99.90;;;;;;4985491;28;20089;-53
2023/12/17 11:16:39;;;;;;;8.90;5.07;;;8.30;99.90;;;;;;4988661;28;20492;-50
2023/12/17 11:19:05;;;;;;;5.13;3.30;;;8.40;99.90;;;;;;4982745;28;20065;-51
2023/12/17 11:21:32;;;;;;;9.10;5.88;;;8.50;99.90;;;;;;4985825;28;20496;-51
2023/12/17 11:23:58;;;;;;;9.88;5.25;;;8.50;99.90;;;;;;4990399;28;20032;-51
2023/12/17 11:26:24;;;;;;;8.48;4.63;;;8.40;99.90;;;;;;4991511;28;20061;-50
2023/12/17 11:28:49;;;;;;;8.10;5.68;;;8.30;99.90;;;;;;4985278;28;20412;-50
2023/12/17 11:31:16;;;;;;;13.57;6.88;;;8.30;99.90;;;;;;4995684;28;20650;-50
2023/12/17 11:33:43;;;;;;;6.88;4.05;;;8.20;99.90;;;;;;4989112;28;20040;-52
2023/12/17 11:36:11;;;;;;;4.90;3.70;;;8.40;99.90;;;;;;5020947;22;20507;-53
2023/12/17 11:38:37;;;;;;;7.75;4.30;;;8.50;99.90;;;;;;5035695;28;20033;-53
2023/12/17 11:41:04;;;;;;;8.20;4.30;;;8.50;99.90;;;;;;5033092;28;20040;-55
2023/12/17 11:43:30;;;;;;;48.58;21.15;;;8.30;99.90;;;;;;5032910;28;20030;-54
2023/12/17 11:45:56;;;;;;;20.30;10.90;;;8.30;99.90;;;;;;5030606;28;20391;-54
2023/12/17 11:48:22;;;;;;;7.63;4.82;;;8.40;99.90;;;;;;5022169;28;20116;-53
2023/12/17 11:50:56;;;;;;;8.32;4.75;;;8.60;99.90;;;;;;5020282;28;20559;-55
2023/12/17 11:53:23;;;;;;;6.72;4.50;;;8.70;99.90;;;;;;5025135;28;20013;-54
2023/12/17 11:55:50;;;;;;;6.65;4.13;;;8.80;99.90;;;;;;5021942;28;20037;-53
2023/12/17 11:58:19;;;;;;;7.65;4.22;;;8.80;99.90;;;;;;5021089;28;20092;-55
2023/12/17 12:01:11;;;;;;;6.43;4.10;;;8.80;99.90;;;;;;5021877;28;20037;-52
2023/12/17 12:03:39;;;;;;;7.45;4.35;;;8.80;99.90;;;;;;5023280;28;20041;-54
2023/12/17 12:06:09;;;;;;;5.70;3.72;;;9.00;99.90;;;;;;5021562;28;20041;-53
2023/12/17 12:08:36;;;;;;;6.15;4.07;;;8.90;99.90;;;;;;5025479;28;20107;-52
2023/12/17 12:11:02;;;;;;;6.68;3.42;;;8.90;99.90;;;;;;5020122;28;20030;-55
2023/12/17 12:13:29;;;;;;;5.38;3.63;;;8.90;99.90;;;;;;5019773;28;20116;-53
2023/12/17 12:15:58;;;;;;;7.65;3.55;;;9.00;99.90;;;;;;5023935;28;20029;-51
2023/12/17 12:18:24;;;;;;;4.95;3.22;;;9.00;99.90;;;;;;5020436;28;20102;-53
2023/12/17 12:20:50;;;;;;;5.90;3.85;;;8.90;99.90;;;;;;5021247;28;20530;-55
2023/12/17 12:23:16;;;;;;;5.55;3.75;;;8.80;99.90;;;;;;5006988;28;20694;-54
2023/12/17 12:25:41;;;;;;;4.40;3.20;;;8.60;99.90;;;;;;5020629;28;20045;-52
2023/12/17 12:28:18;;;;;;;6.63;3.90;;;8.60;99.90;;;;;;5022300;28;20045;-52
2023/12/17 12:30:44;;;;;;;8.05;3.65;;;8.50;99.90;;;;;;5021235;28;20049;-52
2023/12/17 12:33:17;;;;;;;5.60;3.47;;;8.50;99.90;;;;;;5018952;28;20068;-56
2023/12/17 12:35:44;;;;;;;5.35;3.42;;;8.60;99.90;;;;;;5022875;28;20037;-53
2023/12/17 12:38:23;;;;;;;4.80;3.00;;;8.70;99.90;;;;;;5023399;28;20037;-52
2023/12/17 12:40:54;;;;;;;4.35;3.30;;;8.70;99.90;;;;;;5018126;28;20040;-54
2023/12/17 12:43:21;;;;;;;6.07;3.83;;;8.60;99.90;;;;;;5023015;28;20036;-53
2023/12/17 12:45:52;;;;;;;6.10;4.03;;;8.60;99.90;;;;;;5024438;28;20052;-54